Time;durP1;ratioP1;P1;durP2;ratioP2;P2;SDS_P1;SDS_P2;PMS_P1;PMS_P2;Temp;Humidity;BMP_temperature;BMP_pressure;BME280_temperature;BME280_humidity;BME280_pressure;Samples;Min_cycle;Max_cycle;Signal;HPM_P1;HPM_P2
2023/12/03 00:01:52;;;;;;;;;;;;;;;;;;5014203;28;19926;-67
2023/12/03 00:04:19;;;;;;;;;;;;;;;;;;5014665;28;19992;-68
2023/12/03 00:06:46;;;;;;;;;;;;;;;;;;5010473;28;19933;-68
2023/12/03 00:09:14;;;;;;;;;;;;;;;;;;5010031;28;19980;-68
2023/12/03 00:11:41;;;;;;;;;;;;;;;;;;5024898;28;19983;-68
2023/12/03 00:14:08;;;;;;;;;;;;;;;;;;5028363;28;20296;-68
2023/12/03 00:16:35;;;;;;;;;;;;;;;;;;5013815;28;20288;-67
2023/12/03 00:19:03;;;;;;;;;;;;;;;;;;5013322;28;19933;-69
2023/12/03 00:21:30;;;;;;;;;;;;;;;;;;5012196;28;20012;-68
2023/12/03 00:23:57;;;;;;;;;;;;;;;;;;5013553;28;19925;-67
2023/12/03 00:26:24;;;;;;;;;;;;;;;;;;5012950;28;19925;-67
2023/12/03 00:28:51;;;;;;;;;;;;;;;;;;5014863;28;19929;-67
2023/12/03 00:31:18;;;;;;;;;;;;;;;;;;5013187;28;20369;-68
2023/12/03 00:33:45;;;;;;;;;;;;;;;;;;5013501;28;19951;-67
2023/12/03 00:36:12;;;;;;;;;;;;;;;;;;5013424;28;19967;-66
2023/12/03 00:38:39;;;;;;;;;;;;;;;;;;5011828;28;19931;-67
2023/12/03 00:41:06;;;;;;;;;;;;;;;;;;5009194;28;19925;-68
2023/12/03 00:43:33;;;;;;;;;;;;;;;;;;5009443;28;19925;-67
2023/12/03 00:46:02;;;;;;;;;;;;;;;;;;5012696;28;19933;-68
2023/12/03 00:48:29;;;;;;;;;;;;;;;;;;5013633;28;19926;-67
2023/12/03 00:50:57;;;;;;;;;;;;;;;;;;5014119;28;19925;-68
2023/12/03 00:53:24;;;;;;;;;;;;;;;;;;5013319;28;20430;-68
2023/12/03 00:55:52;;;;;;;;;;;;;;;;;;5011837;28;20427;-68
2023/12/03 00:58:19;;;;;;;;;;;;;;;;;;5011714;28;20369;-68
2023/12/03 01:00:46;;;;;;;;;;;;;;;;;;5012756;28;20269;-68
2023/12/03 01:03:12;;;;;;;;;;;;;;;;;;5014018;28;20396;-67
2023/12/03 01:05:39;;;;;;;;;;;;;;;;;;5012508;28;20480;-68
2023/12/03 01:08:06;;;;;;;;;;;;;;;;;;4995713;28;20036;-68
2023/12/03 01:10:33;;;;;;;;;;;;;;;;;;5001187;28;19940;-67
2023/12/03 01:13:00;;;;;;;;;;;;;;;;;;5012856;28;19988;-67
2023/12/03 01:15:27;;;;;;;;;;;;;;;;;;5011012;28;19993;-67
2023/12/03 01:17:54;;;;;;;;;;;;;;;;;;5012574;28;19926;-67
2023/12/03 01:20:21;;;;;;;;;;;;;;;;;;5013618;28;19949;-67
2023/12/03 01:22:49;;;;;;;;;;;;;;;;;;5013017;28;19937;-67
2023/12/03 01:25:16;;;;;;;;;;;;;;;;;;5011047;28;19929;-67
2023/12/03 01:27:43;;;;;;;;;;;;;;;;;;5013210;28;19925;-67
2023/12/03 01:30:10;;;;;;;;;;;;;;;;;;5012848;28;19950;-67
2023/12/03 01:32:37;;;;;;;;;;;;;;;;;;5011796;28;19925;-67
2023/12/03 01:35:04;;;;;;;;;;;;;;;;;;5011344;28;19930;-68
2023/12/03 01:37:31;;;;;;;;;;;;;;;;;;5009931;28;20019;-67
2023/12/03 01:39:58;;;;;;;;;;;;;;;;;;5011830;28;19968;-67
2023/12/03 01:42:24;;;;;;;;;;;;;;;;;;5012420;28;19968;-67
2023/12/03 01:44:51;;;;;;;;;;;;;;;;;;5011666;28;20380;-67
2023/12/03 01:47:18;;;;;;;;;;;;;;;;;;5012406;28;20273;-67
2023/12/03 01:49:45;;;;;;;;;;;;;;;;;;5012766;28;19934;-67
2023/12/03 01:52:12;;;;;;;;;;;;;;;;;;5011351;28;19925;-67
2023/12/03 01:54:41;;;;;;;;;;;;;;;;;;5012297;28;19936;-67
2023/12/03 01:57:08;;;;;;;;;;;;;;;;;;5012399;28;19925;-68
2023/12/03 01:59:35;;;;;;;;;;;;;;;;;;5012326;28;19972;-68
2023/12/03 02:02:02;;;;;;;;;;;;;;;;;;5011242;28;19934;-68
2023/12/03 02:04:29;;;;;;;;;;;;;;;;;;5010267;28;19933;-67
2023/12/03 02:06:56;;;;;;;;;;;;;;;;;;5011827;28;19976;-67
2023/12/03 02:09:23;;;;;;;;;;;;;;;;;;5010147;28;19925;-67
2023/12/03 02:11:50;;;;;;;;;;;;;;;;;;5010418;28;19926;-68
2023/12/03 02:14:17;;;;;;;;;;;;;;;;;;5011783;28;20380;-68
2023/12/03 02:16:44;;;;;;;;;;;;;;;;;;5009730;28;20372;-67
2023/12/03 02:19:11;;;;;;;;;;;;;;;;;;5012765;28;19925;-67
2023/12/03 02:21:38;;;;;;;;;;;;;;;;;;5011670;28;19925;-67
2023/12/03 02:24:05;;;;;;;;;;;;;;;;;;5011524;28;19971;-67
2023/12/03 02:26:32;;;;;;;;;;;;;;;;;;5012064;28;19925;-67
2023/12/03 02:28:59;;;;;;;;;;;;;;;;;;5007275;28;20406;-67
2023/12/03 02:31:26;;;;;;;;;;;;;;;;;;5010809;28;20348;-67
2023/12/03 02:33:53;;;;;;;;;;;;;;;;;;5011269;28;19972;-67
2023/12/03 02:36:20;;;;;;;;;;;;;;;;;;5006730;28;20380;-67
2023/12/03 02:38:47;;;;;;;;;;;;;;;;;;5010567;28;19972;-66
2023/12/03 02:41:14;;;;;;;;;;;;;;;;;;5011756;28;19926;-67
2023/12/03 02:43:41;;;;;;;;;;;;;;;;;;4997837;28;19991;-67
2023/12/03 02:46:09;;;;;;;;;;;;;;;;;;5006526;28;20389;-67
2023/12/03 02:48:36;;;;;;;;;;;;;;;;;;5010715;28;20017;-67
2023/12/03 02:51:03;;;;;;;;;;;;;;;;;;5007430;28;19929;-67
2023/12/03 02:53:30;;;;;;;;;;;;;;;;;;5006019;28;19925;-67
2023/12/03 02:55:57;;;;;;;;;;;;;;;;;;5004109;28;19933;-68
2023/12/03 02:58:24;;;;;;;;;;;;;;;;;;5010226;28;19962;-67
2023/12/03 03:00:51;;;;;;;;;;;;;;;;;;5010083;28;19929;-67
2023/12/03 03:03:18;;;;;;;;;;;;;;;;;;5007048;28;19926;-67
2023/12/03 03:05:45;;;;;;;;;;;;;;;;;;5009912;28;19926;-67
2023/12/03 03:08:12;;;;;;;;;;;;;;;;;;5006807;28;19932;-67
2023/12/03 03:10:39;;;;;;;;;;;;;;;;;;5010549;28;20387;-67
2023/12/03 03:13:08;;;;;;;;;;;;;;;;;;5010751;28;19934;-67
2023/12/03 03:15:35;;;;;;;;;;;;;;;;;;5010436;28;19925;-67
2023/12/03 03:18:02;;;;;;;;;;;;;;;;;;5013180;28;19983;-67
2023/12/03 03:20:29;;;;;;;;;;;;;;;;;;5014557;28;19988;-67
2023/12/03 03:22:56;;;;;;;;;;;;;;;;;;5016517;28;19995;-67
2023/12/03 03:25:23;;;;;;;;;;;;;;;;;;5012425;28;19926;-67
2023/12/03 03:27:50;;;;;;;;;;;;;;;;;;5012590;28;19926;-68
2023/12/03 03:30:17;;;;;;;;;;;;;;;;;;5015926;28;19964;-67
2023/12/03 03:32:44;;;;;;;;;;;;;;;;;;5011012;28;20668;-67
2023/12/03 03:35:11;;;;;;;;;;;;;;;;;;5011725;28;19961;-67
2023/12/03 03:37:38;;;;;;;;;;;;;;;;;;5013179;28;19925;-67
2023/12/03 03:40:05;;;;;;;;;;;;;;;;;;5014374;28;19933;-67
2023/12/03 03:42:32;;;;;;;;;;;;;;;;;;5011518;28;19933;-67
2023/12/03 03:44:59;;;;;;;;;;;;;;;;;;5012248;28;19925;-66
2023/12/03 03:47:26;;;;;;;;;;;;;;;;;;5015976;28;19933;-66
2023/12/03 03:49:53;;;;;;;;;;;;;;;;;;5011958;28;20320;-67
2023/12/03 03:52:20;;;;;;;;;;;;;;;;;;5012168;28;19979;-67
2023/12/03 03:54:47;;;;;;;;;;;;;;;;;;5013489;28;20450;-67
2023/12/03 03:57:14;;;;;;;;;;;;;;;;;;5013562;28;19933;-67
2023/12/03 03:59:41;;;;;;;;;;;;;;;;;;5017539;28;19949;-66
2023/12/03 04:02:08;;;;;;;;;;;;;;;;;;5014033;28;19926;-66
2023/12/03 04:04:35;;;;;;;;;;;;;;;;;;5014986;28;19925;-66
2023/12/03 04:07:03;;;;;;;;;;;;;;;;;;5012285;28;19925;-67
2023/12/03 04:09:30;;;;;;;;;;;;;;;;;;5016009;28;19925;-66
2023/12/03 04:11:57;;;;;;;;;;;;;;;;;;5013869;28;20395;-66
2023/12/03 04:14:24;;;;;;;;;;;;;;;;;;5006796;28;19972;-67
2023/12/03 04:16:51;;;;;;;;;;;;;;;;;;5012819;28;19926;-67
2023/12/03 04:19:18;;;;;;;;;;;;;;;;;;5017118;28;19929;-68
2023/12/03 04:21:45;;;;;;;;;;;;;;;;;;5014128;28;19926;-67
2023/12/03 04:24:12;;;;;;;;;;;;;;;;;;5009986;28;19925;-67
2023/12/03 04:26:39;;;;;;;;;;;;;;;;;;5009661;28;19925;-65
2023/12/03 04:29:06;;;;;;;;;;;;;;;;;;5011506;28;20451;-67
2023/12/03 04:31:33;;;;;;;;;;;;;;;;;;5011355;28;19929;-67
2023/12/03 04:34:00;;;;;;;;;;;;;;;;;;5012459;28;20020;-67
2023/12/03 04:36:27;;;;;;;;;;;;;;;;;;5013927;28;19934;-69
2023/12/03 04:38:54;;;;;;;;;;;;;;;;;;5014727;28;19969;-67
2023/12/03 04:41:21;;;;;;;;;;;;;;;;;;5012814;28;20003;-67
2023/12/03 04:43:48;;;;;;;;;;;;;;;;;;5011630;28;19925;-67
2023/12/03 04:46:15;;;;;;;;;;;;;;;;;;5013519;28;19925;-66
2023/12/03 04:48:42;;;;;;;;;;;;;;;;;;5009413;28;19988;-67
2023/12/03 04:51:09;;;;;;;;;;;;;;;;;;5012400;28;20373;-67
2023/12/03 04:53:36;;;;;;;;;;;;;;;;;;5009052;28;19933;-67
2023/12/03 04:56:03;;;;;;;;;;;;;;;;;;5012252;28;19976;-67
2023/12/03 04:58:30;;;;;;;;;;;;;;;;;;5013183;28;19984;-66
2023/12/03 05:00:57;;;;;;;;;;;;;;;;;;5013471;28;19996;-67
2023/12/03 05:03:24;;;;;;;;;;;;;;;;;;5012853;28;19973;-67
2023/12/03 05:05:52;;;;;;;;;;;;;;;;;;5011726;28;20552;-68
2023/12/03 05:08:19;;;;;;;;;;;;;;;;;;5008997;28;20404;-68
2023/12/03 05:10:46;;;;;;;;;;;;;;;;;;5009184;28;19929;-66
2023/12/03 05:13:13;;;;;;;;;;;;;;;;;;5011483;28;19926;-66
2023/12/03 05:15:40;;;;;;;;;;;;;;;;;;5012091;28;19925;-67
2023/12/03 05:18:07;;;;;;;;;;;;;;;;;;5012076;28;19996;-66
2023/12/03 05:20:34;;;;;;;;;;;;;;;;;;5012871;28;19933;-66
2023/12/03 05:23:01;;;;;;;;;;;;;;;;;;5010813;28;19925;-67
2023/12/03 05:25:28;;;;;;;;;;;;;;;;;;5011422;28;19980;-67
2023/12/03 05:27:55;;;;;;;;;;;;;;;;;;5009759;28;19980;-66
2023/12/03 05:30:22;;;;;;;;;;;;;;;;;;5006428;28;19926;-65
2023/12/03 05:32:50;;;;;;;;;;;;;;;;;;5010837;28;20384;-66
2023/12/03 05:35:16;;;;;;;;;;;;;;;;;;5013934;28;19933;-66
2023/12/03 05:37:43;;;;;;;;;;;;;;;;;;5010542;28;20377;-66
2023/12/03 05:40:11;;;;;;;;;;;;;;;;;;5011874;28;20011;-66
2023/12/03 05:42:38;;;;;;;;;;;;;;;;;;5013983;28;19929;-66
2023/12/03 05:45:05;;;;;;;;;;;;;;;;;;5011980;28;19968;-67
2023/12/03 05:47:32;;;;;;;;;;;;;;;;;;5012164;28;19930;-67
2023/12/03 05:49:59;;;;;;;;;;;;;;;;;;5011334;28;20450;-67
2023/12/03 05:52:26;;;;;;;;;;;;;;;;;;5009697;28;19991;-66
2023/12/03 05:54:52;;;;;;;;;;;;;;;;;;5012578;28;19980;-66
2023/12/03 05:57:20;;;;;;;;;;;;;;;;;;5011310;28;19926;-67
2023/12/03 05:59:47;;;;;;;;;;;;;;;;;;5005477;28;20380;-67
2023/12/03 06:02:14;;;;;;;;;;;;;;;;;;5008450;28;19945;-66
2023/12/03 06:04:41;;;;;;;;;;;;;;;;;;5011131;28;19964;-66
2023/12/03 06:07:08;;;;;;;;;;;;;;;;;;5012345;28;19925;-66
2023/12/03 06:09:35;;;;;;;;;;;;;;;;;;5012114;28;19987;-66
2023/12/03 06:12:02;;;;;;;;;;;;;;;;;;5012220;28;19961;-65
2023/12/03 06:14:29;;;;;;;;;;;;;;;;;;5011545;28;20428;-67
2023/12/03 06:16:56;;;;;;;;;;;;;;;;;;5010821;28;20034;-67
2023/12/03 06:19:23;;;;;;;;;;;;;;;;;;5012239;28;19926;-67
2023/12/03 06:21:50;;;;;;;;;;;;;;;;;;5009487;28;19925;-67
2023/12/03 06:24:17;;;;;;;;;;;;;;;;;;5012144;28;19937;-67
2023/12/03 06:26:44;;;;;;;;;;;;;;;;;;5012569;28;20044;-65
2023/12/03 06:29:11;;;;;;;;;;;;;;;;;;5010782;28;19980;-67
2023/12/03 06:31:38;;;;;;;;;;;;;;;;;;5007696;28;20281;-67
2023/12/03 06:34:05;;;;;;;;;;;;;;;;;;5006590;28;19979;-67
2023/12/03 06:36:32;;;;;;;;;;;;;;;;;;5009706;28;19926;-65
2023/12/03 06:38:59;;;;;;;;;;;;;;;;;;5012610;28;20301;-66
2023/12/03 06:41:26;;;;;;;;;;;;;;;;;;5008049;28;19936;-67
2023/12/03 06:43:54;;;;;;;;;;;;;;;;;;5009213;28;19927;-67
2023/12/03 06:46:21;;;;;;;;;;;;;;;;;;5008925;28;19956;-67
2023/12/03 06:48:48;;;;;;;;;;;;;;;;;;5009752;28;20389;-65
2023/12/03 06:51:15;;;;;;;;;;;;;;;;;;5010654;28;20369;-66
2023/12/03 06:53:42;;;;;;;;;;;;;;;;;;5012524;28;19995;-66
2023/12/03 06:56:09;;;;;;;;;;;;;;;;;;5014254;28;19925;-66
2023/12/03 06:58:36;;;;;;;;;;;;;;;;;;5014628;28;19982;-66
2023/12/03 07:01:03;;;;;;;;;;;;;;;;;;5011160;28;19925;-66
2023/12/03 07:03:30;;;;;;;;;;;;;;;;;;5013226;28;19925;-67
2023/12/03 07:05:59;;;;;;;;;;;;;;;;;;5014399;28;19925;-67
2023/12/03 07:08:26;;;;;;;;;;;;;;;;;;5016355;28;19925;-67
2023/12/03 07:10:53;;;;;;;;;;;;;;;;;;5015582;28;19972;-67
2023/12/03 07:13:20;;;;;;;;;;;;;;;;;;5012040;28;19926;-67
2023/12/03 07:15:47;;;;;;;;;;;;;;;;;;5017225;28;19932;-66
2023/12/03 07:18:14;;;;;;;;;;;;;;;;;;5012994;28;19932;-68
2023/12/03 07:20:42;;;;;;;;;;;;;;;;;;5014480;28;19932;-69
2023/12/03 07:23:09;;;;;;;;;;;;;;;;;;5017192;28;19929;-68
2023/12/03 07:25:36;;;;;;;;;;;;;;;;;;5013342;28;19936;-69
2023/12/03 07:28:03;;;;;;;;;;;;;;;;;;5016302;28;19926;-67
2023/12/03 07:30:30;;;;;;;;;;;;;;;;;;5010551;28;19932;-67
2023/12/03 07:32:57;;;;;;;;;;;;;;;;;;5013771;28;20399;-67
2023/12/03 07:35:24;;;;;;;;;;;;;;;;;;5014360;28;19925;-66
2023/12/03 07:37:51;;;;;;;;;;;;;;;;;;5008006;28;20270;-67
2023/12/03 07:40:18;;;;;;;;;;;;;;;;;;5013116;28;19925;-67
2023/12/03 07:42:45;;;;;;;;;;;;;;;;;;5011642;28;20024;-67
2023/12/03 07:45:12;;;;;;;;;;;;;;;;;;5013096;28;19965;-67
2023/12/03 07:47:39;;;;;;;;;;;;;;;;;;5012542;28;19929;-67
2023/12/03 07:50:06;;;;;;;;;;;;;;;;;;5014887;28;19972;-68
2023/12/03 07:52:33;;;;;;;;;;;;;;;;;;5013678;28;19980;-68
2023/12/03 07:55:01;;;;;;;;;;;;;;;;;;5016194;28;20396;-68
2023/12/03 07:57:29;;;;;;;;;;;;;;;;;;5006870;28;20016;-67
2023/12/03 07:59:56;;;;;;;;;;;;;;;;;;5015727;28;20393;-66
2023/12/03 08:02:23;;;;;;;;;;;;;;;;;;5011522;28;19930;-66
2023/12/03 08:04:50;;;;;;;;;;;;;;;;;;5010706;28;20355;-67
2023/12/03 08:07:17;;;;;;;;;;;;;;;;;;5016402;28;19972;-67
2023/12/03 08:09:44;;;;;;;;;;;;;;;;;;5011503;28;20388;-66
2023/12/03 08:12:11;;;;;;;;;;;;;;;;;;5013023;28;19926;-66
2023/12/03 08:14:38;;;;;;;;;;;;;;;;;;5012991;28;19980;-66
2023/12/03 08:17:11;;;;;;;;;;;;;;;;;;5011598;28;19969;-65
2023/12/03 08:19:38;;;;;;;;;;;;;;;;;;5013288;28;20019;-66
2023/12/03 08:22:05;;;;;;;;;;;;;;;;;;5010938;28;20340;-65
2023/12/03 08:24:32;;;;;;;;;;;;;;;;;;5005841;28;19929;-67
2023/12/03 08:26:59;;;;;;;;;;;;;;;;;;5008254;28;20010;-67
2023/12/03 08:29:26;;;;;;;;;;;;;;;;;;5011938;28;20300;-67
2023/12/03 08:31:53;;;;;;;;;;;;;;;;;;5012867;28;19964;-66
2023/12/03 08:34:20;;;;;;;;;;;;;;;;;;5013515;28;19965;-66
2023/12/03 08:36:47;;;;;;;;;;;;;;;;;;5008971;28;19995;-68
2023/12/03 08:39:14;;;;;;;;;;;;;;;;;;5011060;28;19968;-67
2023/12/03 08:41:41;;;;;;;;;;;;;;;;;;5014111;28;19976;-68
2023/12/03 08:44:08;;;;;;;;;;;;;;;;;;4994571;28;19969;-68
2023/12/03 08:46:35;;;;;;;;;;;;;;;;;;5008553;28;19929;-68
2023/12/03 08:49:02;;;;;;;;;;;;;;;;;;5014671;28;20447;-68
2023/12/03 08:51:29;;;;;;;;;;;;;;;;;;5011152;28;19925;-68
2023/12/03 08:53:56;;;;;;;;;;;;;;;;;;5011165;28;19979;-69
2023/12/03 08:56:23;;;;;;;;;;;;;;;;;;5001968;28;19933;-69
2023/12/03 08:58:50;;;;;;;;;;;;;;;;;;5014957;28;20006;-69
2023/12/03 09:01:20;;;;;;;;;;;;;;;;;;5009164;28;19987;-70
2023/12/03 09:03:48;;;;;;;;;;;;;;;;;;5007675;28;19930;-68
2023/12/03 09:06:15;;;;;;;;;;;;;;;;;;5011165;28;20320;-68
2023/12/03 09:08:50;;;;;;;;;;;;;;;;;;5017724;28;19933;-68
2023/12/03 09:11:17;;;;;;;;;;;;;;;;;;5012982;28;19933;-70
2023/12/03 09:13:44;;;;;;;;;;;;;;;;;;5009543;28;20484;-70
2023/12/03 09:16:11;;;;;;;;;;;;;;;;;;5010879;28;19926;-69
2023/12/03 09:18:39;;;;;;;;;;;;;;;;;;5012666;28;19933;-69
2023/12/03 09:21:06;;;;;;;;;;;;;;;;;;5012060;28;19929;-69
2023/12/03 09:23:35;;;;;;;;;;;;;;;;;;5010493;28;19933;-68
2023/12/03 09:26:02;;;;;;;;;;;;;;;;;;5007839;28;19932;-67
2023/12/03 09:28:30;;;;;;;;;;;;;;;;;;5007167;28;19925;-67
2023/12/03 09:30:57;;;;;;;;;;;;;;;;;;5005876;28;19983;-68
2023/12/03 09:33:25;;;;;;;;;;;;;;;;;;5008457;28;19961;-67
2023/12/03 09:35:52;;;;;;;;;;;;;;;;;;5011929;28;19962;-69
2023/12/03 09:38:19;;;;;;;;;;;;;;;;;;5002277;28;19996;-68
2023/12/03 09:40:46;;;;;;;;;;;;;;;;;;4999250;28;19956;-67
2023/12/03 09:43:15;;;;;;;;;;;;;;;;;;5000493;28;19972;-67
2023/12/03 09:45:44;;;;;;;;;;;;;;;;;;5009523;28;20376;-71
2023/12/03 09:48:12;;;;;;;;;;;;;;;;;;5008803;28;19932;-68
2023/12/03 09:51:06;;;;;;;;;;;;;;;;;;5147065;27;19923;-69
2023/12/03 09:53:36;;;;;;;;;;;;;;;;;;5118277;28;20031;-67
2023/12/03 09:56:03;;;;;;;;;;;;;;;;;;5113386;28;20410;-68
2023/12/03 09:58:33;;;;;;;;;;;;;;;;;;5121307;28;20302;-68
2023/12/03 10:01:00;;;;;;;;;;;;;;;;;;5116696;27;19977;-69
2023/12/03 10:03:27;;;;;;;;;;;;;;;;;;5106173;27;19924;-69
2023/12/03 10:05:54;;;;;;;;;;;;;;;;;;5120339;28;19924;-68
2023/12/03 10:08:22;;;;;;;;;;;;;;;;;;5110529;27;19927;-69
2023/12/03 10:10:49;;;;;;;;;;;;;;;;;;5119514;27;19923;-68
2023/12/03 10:13:20;;;;;;;;;;;;;;;;;;5110403;27;19924;-68
2023/12/03 10:15:47;;;;;;;;;;;;;;;;;;5101270;27;20558;-67
2023/12/03 10:18:18;;;;;;;;;;;;;;;;;;5096150;27;19938;-67
2023/12/03 10:20:46;;;;;;;;;;;;;;;;;;5115161;27;19928;-69
2023/12/03 10:23:13;;;;;;;;;;;;;;;;;;5109751;27;19947;-68
2023/12/03 10:25:43;;;;;;;;;;;;;;;;;;5116620;27;19940;-69
2023/12/03 10:28:11;;;;;;;;;;;;;;;;;;5116473;28;19932;-67
2023/12/03 10:30:41;;;;;;;;;;;;;;;;;;5108208;27;20586;-68
2023/12/03 10:33:11;;;;;;;;;;;;;;;;;;5110514;28;20271;-67
2023/12/03 10:35:38;;;;;;;;;;;;;;;;;;5102781;27;19931;-68
2023/12/03 10:38:05;;;;;;;;;;;;;;;;;;5121294;28;19930;-67
2023/12/03 10:40:32;;;;;;;;;;;;;;;;;;5105429;27;20417;-69
2023/12/03 10:43:00;;;;;;;;;;;;;;;;;;5098949;28;19937;-68
2023/12/03 10:45:27;;;;;;;;;;;;;;;;;;5108465;27;20797;-69
2023/12/03 10:47:54;;;;;;;;;;;;;;;;;;5113507;27;19968;-69
2023/12/03 10:50:21;;;;;;;;;;;;;;;;;;5105141;27;19931;-69
2023/12/03 10:52:49;;;;;;;;;;;;;;;;;;5103408;28;19948;-69
2023/12/03 10:55:19;;;;;;;;;;;;;;;;;;5106846;27;19931;-70
2023/12/03 10:57:46;;;;;;;;;;;;;;;;;;5101210;27;19927;-69
2023/12/03 11:00:17;;;;;;;;;;;;;;;;;;5103519;27;19932;-70
2023/12/03 11:02:44;;;;;;;;;;;;;;;;;;5093206;28;19992;-69
2023/12/03 11:05:11;;;;;;;;;;;;;;;;;;5100281;28;19938;-69
2023/12/03 11:07:39;;;;;;;;;;;;;;;;;;5092985;28;19951;-70
2023/12/03 11:10:06;;;;;;;;;;;;;;;;;;5099334;27;19924;-69
2023/12/03 11:12:38;;;;;;;;;;;;;;;;;;5097269;28;19936;-70
2023/12/03 11:15:05;;;;;;;;;;;;;;;;;;5088805;28;19939;-70
2023/12/03 11:17:32;;;;;;;;;;;;;;;;;;5095261;28;21078;-70
2023/12/03 11:20:00;;;;;;;;;;;;;;;;;;5090094;27;19939;-70
2023/12/03 11:22:27;;;;;;;;;;;;;;;;;;5093736;28;19976;-70
2023/12/03 11:24:55;;;;;;;;;;;;;;;;;;5096404;28;19924;-68
2023/12/03 11:27:22;;;;;;;;;;;;;;;;;;5097704;28;20402;-67
2023/12/03 11:29:49;;;;;;;;;;;;;;;;;;5088234;27;20285;-67
2023/12/03 11:32:17;;;;;;;;;;;;;;;;;;5086162;28;19989;-67
2023/12/03 11:34:44;;;;;;;;;;;;;;;;;;5091154;27;20275;-67
2023/12/03 11:37:11;;;;;;;;;;;;;;;;;;5100398;28;19928;-69
2023/12/03 11:39:38;;;;;;;;;;;;;;;;;;5105790;28;19978;-67
2023/12/03 11:42:06;;;;;;;;;;;;;;;;;;5106827;27;20018;-66
2023/12/03 11:44:33;;;;;;;;;;;;;;;;;;5103558;28;19924;-68
2023/12/03 11:47:00;;;;;;;;;;;;;;;;;;5096400;28;19924;-67
2023/12/03 11:49:27;;;;;;;;;;;;;;;;;;5084980;22;19933;-67
2023/12/03 11:51:54;;;;;;;;;;;;;;;;;;5051702;28;19925;-68
2023/12/03 11:54:23;;;;;;;;;;;;;;;;;;5055266;28;19931;-68
2023/12/03 11:56:50;;;;;;;;;;;;;;;;;;5036977;28;19957;-67
2023/12/03 11:59:18;;;;;;;;;;;;;;;;;;5026751;28;19937;-67
2023/12/03 12:01:45;;;;;;;;;;;;;;;;;;5042764;28;19928;-66
2023/12/03 12:04:12;;;;;;;;;;;;;;;;;;5044182;28;19932;-66
2023/12/03 12:06:39;;;;;;;;;;;;;;;;;;5025380;28;19968;-66
2023/12/03 12:09:06;;;;;;;;;;;;;;;;;;5025844;28;19994;-66
2023/12/03 12:11:33;;;;;;;;;;;;;;;;;;5023343;28;19964;-65
2023/12/03 12:14:00;;;;;;;;;;;;;;;;;;5024578;28;19940;-66
2023/12/03 12:16:29;;;;;;;;;;;;;;;;;;5026863;28;19928;-66
2023/12/03 12:18:56;;;;;;;;;;;;;;;;;;5023006;28;20403;-66
2023/12/03 12:21:23;;;;;;;;;;;;;;;;;;5042643;28;19972;-65
2023/12/03 12:23:50;;;;;;;;;;;;;;;;;;5051636;28;19968;-66
2023/12/03 12:26:17;;;;;;;;;;;;;;;;;;5046249;28;19924;-65
2023/12/03 12:28:44;;;;;;;;;;;;;;;;;;5050189;28;19928;-66
2023/12/03 12:31:12;;;;;;;;;;;;;;;;;;5050835;28;19924;-65
2023/12/03 12:33:39;;;;;;;;;;;;;;;;;;5046310;28;20446;-66
2023/12/03 12:36:06;;;;;;;;;;;;;;;;;;5033037;28;19933;-66
2023/12/03 12:38:33;;;;;;;;;;;;;;;;;;5038118;28;19925;-64
2023/12/03 12:41:00;;;;;;;;;;;;;;;;;;5034840;28;19948;-67
2023/12/03 12:43:27;;;;;;;;;;;;;;;;;;5039000;28;19925;-66
2023/12/03 12:45:56;;;;;;;;;;;;;;;;;;5035141;28;19924;-65
2023/12/03 12:48:23;;;;;;;;;;;;;;;;;;5023980;28;19924;-65
2023/12/03 12:50:50;;;;;;;;;;;;;;;;;;5033857;28;19937;-65
2023/12/03 12:53:17;;;;;;;;;;;;;;;;;;5028699;28;19925;-65
2023/12/03 12:55:44;;;;;;;;;;;;;;;;;;5022917;28;19933;-65
2023/12/03 12:58:11;;;;;;;;;;;;;;;;;;5022445;28;20397;-65
2023/12/03 13:00:38;;;;;;;;;;;;;;;;;;5026499;28;20002;-65
2023/12/03 13:03:05;;;;;;;;;;;;;;;;;;5030538;28;19973;-66
2023/12/03 13:05:32;;;;;;;;;;;;;;;;;;5039436;28;19968;-67
2023/12/03 13:07:59;;;;;;;;;;;;;;;;;;5046059;28;20445;-66
2023/12/03 13:10:26;;;;;;;;;;;;;;;;;;5035883;28;19933;-66
2023/12/03 13:12:53;;;;;;;;;;;;;;;;;;5041849;28;20295;-66
2023/12/03 13:15:20;;;;;;;;;;;;;;;;;;5043282;28;20558;-66
2023/12/03 13:17:47;;;;;;;;;;;;;;;;;;5052052;28;19925;-66
2023/12/03 13:20:14;;;;;;;;;;;;;;;;;;5032206;28;19928;-66
2023/12/03 13:22:41;;;;;;;;;;;;;;;;;;5035482;28;19933;-66
2023/12/03 13:25:08;;;;;;;;;;;;;;;;;;5044974;28;19924;-66
2023/12/03 13:27:35;;;;;;;;;;;;;;;;;;5033347;28;20021;-65
2023/12/03 13:30:04;;;;;;;;;;;;;;;;;;5030838;28;19943;-66
2023/12/03 13:32:31;;;;;;;;;;;;;;;;;;5036480;28;19924;-66
2023/12/03 13:34:59;;;;;;;;;;;;;;;;;;5038102;28;19939;-66
2023/12/03 13:37:26;;;;;;;;;;;;;;;;;;5037035;28;19933;-66
2023/12/03 13:39:54;;;;;;;;;;;;;;;;;;5044683;28;20311;-66
2023/12/03 13:42:21;;;;;;;;;;;;;;;;;;5045233;28;20391;-66
2023/12/03 13:44:48;;;;;;;;;;;;;;;;;;5046124;28;19975;-65
2023/12/03 13:47:15;;;;;;;;;;;;;;;;;;5039016;28;19964;-66
2023/12/03 13:49:42;;;;;;;;;;;;;;;;;;5048184;28;20303;-66
2023/12/03 13:52:09;;;;;;;;;;;;;;;;;;5038548;28;19980;-66
2023/12/03 13:54:36;;;;;;;;;;;;;;;;;;5037892;28;20384;-66
2023/12/03 13:57:03;;;;;;;;;;;;;;;;;;5039463;28;20220;-67
2023/12/03 13:59:30;;;;;;;;;;;;;;;;;;5046376;28;19924;-67
2023/12/03 14:01:57;;;;;;;;;;;;;;;;;;5045251;28;19925;-64
2023/12/03 14:04:24;;;;;;;;;;;;;;;;;;5042046;28;20406;-67
2023/12/03 14:06:51;;;;;;;;;;;;;;;;;;5042722;28;19925;-66
2023/12/03 14:09:18;;;;;;;;;;;;;;;;;;5046881;28;20457;-68
2023/12/03 14:11:45;;;;;;;;;;;;;;;;;;5040649;28;20430;-65
2023/12/03 14:14:12;;;;;;;;;;;;;;;;;;5046128;28;19929;-65
2023/12/03 14:16:39;;;;;;;;;;;;;;;;;;5037417;28;19933;-65
2023/12/03 14:19:06;;;;;;;;;;;;;;;;;;5041179;28;19994;-65
2023/12/03 14:21:33;;;;;;;;;;;;;;;;;;5046230;28;20881;-65
2023/12/03 14:24:00;;;;;;;;;;;;;;;;;;5039548;28;19968;-66
2023/12/03 14:26:27;;;;;;;;;;;;;;;;;;5038231;28;19990;-66
2023/12/03 14:28:54;;;;;;;;;;;;;;;;;;5032680;28;20315;-66
2023/12/03 14:31:23;;;;;;;;;;;;;;;;;;5022486;28;20047;-66
2023/12/03 14:33:50;;;;;;;;;;;;;;;;;;5035292;28;19956;-66
2023/12/03 14:36:22;;;;;;;;;;;;;;;;;;5038284;28;20014;-66
2023/12/03 14:38:49;;;;;;;;;;;;;;;;;;5042115;28;20410;-66
2023/12/03 14:41:16;;;;;;;;;;;;;;;;;;5039899;28;19925;-66
2023/12/03 14:43:43;;;;;;;;;;;;;;;;;;5044320;28;19925;-66
2023/12/03 14:46:10;;;;;;;;;;;;;;;;;;5038120;28;19937;-66
2023/12/03 14:48:37;;;;;;;;;;;;;;;;;;5040592;28;20370;-66
2023/12/03 14:51:04;;;;;;;;;;;;;;;;;;5036939;28;19984;-66
2023/12/03 14:53:32;;;;;;;;;;;;;;;;;;5038711;28;19925;-66
2023/12/03 14:55:59;;;;;;;;;;;;;;;;;;5044878;28;19940;-65
2023/12/03 14:58:26;;;;;;;;;;;;;;;;;;5046077;28;19931;-65
2023/12/03 15:00:54;;;;;;;;;;;;;;;;;;5049812;28;19932;-67
2023/12/03 15:03:21;;;;;;;;;;;;;;;;;;5036384;28;20008;-66
2023/12/03 15:05:48;;;;;;;;;;;;;;;;;;5050230;28;19979;-66
2023/12/03 15:08:15;;;;;;;;;;;;;;;;;;5044095;28;19939;-67
2023/12/03 15:10:42;;;;;;;;;;;;;;;;;;5040967;28;19932;-66
2023/12/03 15:13:09;;;;;;;;;;;;;;;;;;5034297;28;19988;-67
2023/12/03 15:15:36;;;;;;;;;;;;;;;;;;5045999;28;21070;-66
2023/12/03 15:18:03;;;;;;;;;;;;;;;;;;5038758;28;19929;-67
2023/12/03 15:20:30;;;;;;;;;;;;;;;;;;5047997;28;20023;-67
2023/12/03 15:22:58;;;;;;;;;;;;;;;;;;5045873;28;20021;-66
2023/12/03 15:25:25;;;;;;;;;;;;;;;;;;5048552;28;19940;-66
2023/12/03 15:27:52;;;;;;;;;;;;;;;;;;5047702;28;19972;-67
2023/12/03 15:30:20;;;;;;;;;;;;;;;;;;5040566;28;19929;-66
2023/12/03 15:32:47;;;;;;;;;;;;;;;;;;5041034;28;19931;-67
2023/12/03 15:35:14;;;;;;;;;;;;;;;;;;5046798;28;19974;-66
2023/12/03 15:37:42;;;;;;;;;;;;;;;;;;5041519;28;19952;-66
2023/12/03 15:40:09;;;;;;;;;;;;;;;;;;5048620;28;20443;-66
2023/12/03 15:42:36;;;;;;;;;;;;;;;;;;5049157;28;19994;-66
2023/12/03 15:45:03;;;;;;;;;;;;;;;;;;5047419;28;20356;-66
2023/12/03 15:47:30;;;;;;;;;;;;;;;;;;5048960;28;19971;-66
2023/12/03 15:49:57;;;;;;;;;;;;;;;;;;5037505;28;19983;-67
2023/12/03 15:52:24;;;;;;;;;;;;;;;;;;5040974;28;19972;-66
2023/12/03 15:54:51;;;;;;;;;;;;;;;;;;5027772;28;20392;-66
2023/12/03 15:57:18;;;;;;;;;;;;;;;;;;5038898;28;19932;-66
2023/12/03 15:59:45;;;;;;;;;;;;;;;;;;5047309;28;19955;-66
2023/12/03 16:02:12;;;;;;;;;;;;;;;;;;5043590;28;20005;-66
2023/12/03 16:04:39;;;;;;;;;;;;;;;;;;5045138;28;19987;-66
2023/12/03 16:07:06;;;;;;;;;;;;;;;;;;5038778;28;19971;-66
2023/12/03 16:09:33;;;;;;;;;;;;;;;;;;5049870;28;19986;-66
2023/12/03 16:12:00;;;;;;;;;;;;;;;;;;5045485;28;19976;-66
2023/12/03 16:14:27;;;;;;;;;;;;;;;;;;5043567;28;19933;-66
2023/12/03 16:16:54;;;;;;;;;;;;;;;;;;5045309;28;20059;-66
2023/12/03 16:19:21;;;;;;;;;;;;;;;;;;5047923;28;19924;-66
2023/12/03 16:21:49;;;;;;;;;;;;;;;;;;5048944;28;20339;-65
2023/12/03 16:24:16;;;;;;;;;;;;;;;;;;5028312;28;19925;-65
2023/12/03 16:26:44;;;;;;;;;;;;;;;;;;5045183;28;19994;-66
2023/12/03 16:29:11;;;;;;;;;;;;;;;;;;5046703;28;19925;-66
2023/12/03 16:31:38;;;;;;;;;;;;;;;;;;5043046;28;20021;-65
2023/12/03 16:34:05;;;;;;;;;;;;;;;;;;5039513;28;19925;-66
2023/12/03 16:36:32;;;;;;;;;;;;;;;;;;5039502;28;19929;-66
2023/12/03 16:38:59;;;;;;;;;;;;;;;;;;5033914;28;21140;-67
2023/12/03 16:41:26;;;;;;;;;;;;;;;;;;5040805;28;19928;-69
2023/12/03 16:43:53;;;;;;;;;;;;;;;;;;5040447;28;19925;-66
2023/12/03 16:46:20;;;;;;;;;;;;;;;;;;5039860;28;19925;-65